sensor_id;sensor_type;location;lat;lon;timestamp;pressure;altitude;pressure_sealevel;temperature;humidity
84316;BME280;74496;52.236;5.164;2024-02-26T00:00:29;99998.91;;;7.51;73.93
84316;BME280;74496;52.236;5.164;2024-02-26T00:02:56;99999.72;;;7.51;73.12
84316;BME280;74496;52.236;5.164;2024-02-26T00:05:23;99992.81;;;7.50;73.46
84316;BME280;74496;52.236;5.164;2024-02-26T00:07:49;99998.19;;;7.49;73.16
84316;BME280;74496;52.236;5.164;2024-02-26T00:10:16;100000.81;;;7.49;73.25
84316;BME280;74496;52.236;5.164;2024-02-26T00:12:43;100000.16;;;7.47;73.24
84316;BME280;74496;52.236;5.164;2024-02-26T00:15:10;99999.00;;;7.49;74.04
84316;BME280;74496;52.236;5.164;2024-02-26T00:17:38;100004.69;;;7.45;73.24
84316;BME280;74496;52.236;5.164;2024-02-26T00:20:05;100005.09;;;7.40;73.75
84316;BME280;74496;52.236;5.164;2024-02-26T00:22:34;100002.75;;;7.37;73.59
84316;BME280;74496;52.236;5.164;2024-02-26T00:25:00;100006.31;;;7.36;73.66
84316;BME280;74496;52.236;5.164;2024-02-26T00:27:27;100011.47;;;7.38;74.10
84316;BME280;74496;52.236;5.164;2024-02-26T00:29:54;100005.50;;;7.36;73.95
84316;BME280;74496;52.236;5.164;2024-02-26T00:32:20;100006.88;;;7.40;73.60
84316;BME280;74496;52.236;5.164;2024-02-26T00:34:48;100016.97;;;7.35;73.14
84316;BME280;74496;52.236;5.164;2024-02-26T00:37:15;100007.44;;;7.34;73.18
84316;BME280;74496;52.236;5.164;2024-02-26T00:39:42;100020.41;;;7.35;73.63
84316;BME280;74496;52.236;5.164;2024-02-26T00:42:10;100014.63;;;7.32;72.88
84316;BME280;74496;52.236;5.164;2024-02-26T00:44:36;100011.84;;;7.33;74.16
84316;BME280;74496;52.236;5.164;2024-02-26T00:47:03;100012.00;;;7.32;73.33
84316;BME280;74496;52.236;5.164;2024-02-26T00:49:30;100015.88;;;7.27;73.92
84316;BME280;74496;52.236;5.164;2024-02-26T00:51:58;100010.06;;;7.24;74.23
84316;BME280;74496;52.236;5.164;2024-02-26T00:54:24;100018.59;;;7.26;74.03
84316;BME280;74496;52.236;5.164;2024-02-26T00:56:51;100004.66;;;7.25;73.33
84316;BME280;74496;52.236;5.164;2024-02-26T00:59:18;100004.81;;;7.24;73.38
84316;BME280;74496;52.236;5.164;2024-02-26T01:01:44;100010.19;;;7.32;73.33
84316;BME280;74496;52.236;5.164;2024-02-26T01:04:11;100006.31;;;7.26;73.52
84316;BME280;74496;52.236;5.164;2024-02-26T01:06:38;100009.91;;;7.25;73.90
84316;BME280;74496;52.236;5.164;2024-02-26T01:09:06;100014.47;;;7.23;73.75
84316;BME280;74496;52.236;5.164;2024-02-26T01:11:33;100011.97;;;7.22;73.35
84316;BME280;74496;52.236;5.164;2024-02-26T01:14:00;100016.69;;;7.18;73.24
84316;BME280;74496;52.236;5.164;2024-02-26T01:16:27;100012.41;;;7.17;73.65
84316;BME280;74496;52.236;5.164;2024-02-26T01:18:54;100017.78;;;7.16;73.35
84316;BME280;74496;52.236;5.164;2024-02-26T01:21:21;100019.53;;;7.05;73.92
84316;BME280;74496;52.236;5.164;2024-02-26T01:23:47;100023.00;;;7.06;73.96
84316;BME280;74496;52.236;5.164;2024-02-26T01:26:15;100019.28;;;7.09;74.62
84316;BME280;74496;52.236;5.164;2024-02-26T01:28:42;100016.38;;;7.02;74.14
84316;BME280;74496;52.236;5.164;2024-02-26T01:31:09;100028.50;;;7.03;74.81
84316;BME280;74496;52.236;5.164;2024-02-26T01:33:36;100028.25;;;7.06;74.59
84316;BME280;74496;52.236;5.164;2024-02-26T01:36:03;100022.28;;;7.04;74.86
84316;BME280;74496;52.236;5.164;2024-02-26T01:38:30;100026.97;;;7.00;73.86
84316;BME280;74496;52.236;5.164;2024-02-26T01:40:57;100020.78;;;7.01;74.30
84316;BME280;74496;52.236;5.164;2024-02-26T01:43:25;100019.81;;;7.02;74.21
84316;BME280;74496;52.236;5.164;2024-02-26T01:45:51;100020.22;;;6.98;74.07
84316;BME280;74496;52.236;5.164;2024-02-26T01:48:18;100017.34;;;7.01;73.91
84316;BME280;74496;52.236;5.164;2024-02-26T01:50:45;100019.66;;;6.94;74.43
84316;BME280;74496;52.236;5.164;2024-02-26T01:53:12;100016.06;;;6.95;75.28
84316;BME280;74496;52.236;5.164;2024-02-26T01:55:39;100015.81;;;6.98;74.24
84316;BME280;74496;52.236;5.164;2024-02-26T01:58:06;100013.31;;;6.97;74.24
84316;BME280;74496;52.236;5.164;2024-02-26T02:00:35;100018.69;;;6.95;74.16
84316;BME280;74496;52.236;5.164;2024-02-26T02:03:02;100022.41;;;6.93;74.85
84316;BME280;74496;52.236;5.164;2024-02-26T02:05:30;100028.47;;;6.93;74.13
84316;BME280;74496;52.236;5.164;2024-02-26T02:07:57;100013.97;;;6.89;74.70
84316;BME280;74496;52.236;5.164;2024-02-26T02:10:25;100029.72;;;6.89;74.78
84316;BME280;74496;52.236;5.164;2024-02-26T02:12:53;100027.81;;;6.91;74.33
84316;BME280;74496;52.236;5.164;2024-02-26T02:15:20;100035.94;;;6.88;74.81
84316;BME280;74496;52.236;5.164;2024-02-26T02:17:48;100029.00;;;6.87;74.28
84316;BME280;74496;52.236;5.164;2024-02-26T02:20:16;100035.06;;;6.88;74.14
84316;BME280;74496;52.236;5.164;2024-02-26T02:22:45;100037.41;;;6.81;74.51
84316;BME280;74496;52.236;5.164;2024-02-26T02:25:11;100036.56;;;6.80;74.98
84316;BME280;74496;52.236;5.164;2024-02-26T02:27:39;100037.03;;;6.86;74.90
84316;BME280;74496;52.236;5.164;2024-02-26T02:30:07;100042.38;;;6.84;74.25
84316;BME280;74496;52.236;5.164;2024-02-26T02:32:36;100042.53;;;6.82;74.24
84316;BME280;74496;52.236;5.164;2024-02-26T02:35:04;100042.56;;;6.92;74.64
84316;BME280;74496;52.236;5.164;2024-02-26T02:37:33;100047.09;;;6.90;74.76
84316;BME280;74496;52.236;5.164;2024-02-26T02:40:01;100045.72;;;6.86;74.02
84316;BME280;74496;52.236;5.164;2024-02-26T02:42:28;100048.31;;;6.86;74.48
84316;BME280;74496;52.236;5.164;2024-02-26T02:44:54;100054.13;;;6.90;74.24
84316;BME280;74496;52.236;5.164;2024-02-26T02:47:21;100048.63;;;6.93;74.15
84316;BME280;74496;52.236;5.164;2024-02-26T02:49:48;100049.44;;;6.93;74.09
84316;BME280;74496;52.236;5.164;2024-02-26T02:52:14;100048.38;;;6.96;73.65
84316;BME280;74496;52.236;5.164;2024-02-26T02:54:41;100057.31;;;6.93;73.94
84316;BME280;74496;52.236;5.164;2024-02-26T02:57:09;100058.03;;;6.95;74.35
84316;BME280;74496;52.236;5.164;2024-02-26T02:59:37;100052.63;;;6.97;74.39
84316;BME280;74496;52.236;5.164;2024-02-26T03:02:04;100065.75;;;6.97;73.92
84316;BME280;74496;52.236;5.164;2024-02-26T03:04:32;100065.63;;;6.98;73.68
84316;BME280;74496;52.236;5.164;2024-02-26T03:06:58;100068.09;;;7.00;74.19
84316;BME280;74496;52.236;5.164;2024-02-26T03:09:25;100069.19;;;6.97;73.89
84316;BME280;74496;52.236;5.164;2024-02-26T03:11:52;100069.63;;;7.02;73.54
84316;BME280;74496;52.236;5.164;2024-02-26T03:14:20;100074.88;;;7.02;73.29
84316;BME280;74496;52.236;5.164;2024-02-26T03:16:47;100079.72;;;7.07;73.77
84316;BME280;74496;52.236;5.164;2024-02-26T03:19:14;100085.81;;;7.08;73.74
84316;BME280;74496;52.236;5.164;2024-02-26T03:21:41;100086.63;;;7.08;74.27
84316;BME280;74496;52.236;5.164;2024-02-26T03:24:07;100085.13;;;7.15;73.03
84316;BME280;74496;52.236;5.164;2024-02-26T03:26:35;100097.53;;;7.13;73.51
84316;BME280;74496;52.236;5.164;2024-02-26T03:29:02;100091.47;;;7.13;74.10
84316;BME280;74496;52.236;5.164;2024-02-26T03:31:30;100093.81;;;7.16;73.64
84316;BME280;74496;52.236;5.164;2024-02-26T03:33:57;100103.59;;;7.14;73.63
84316;BME280;74496;52.236;5.164;2024-02-26T03:36:24;100101.59;;;7.17;73.40
84316;BME280;74496;52.236;5.164;2024-02-26T03:38:50;100096.44;;;7.16;73.99
84316;BME280;74496;52.236;5.164;2024-02-26T03:41:17;100096.19;;;7.19;73.98
84316;BME280;74496;52.236;5.164;2024-02-26T03:43:44;100097.16;;;7.18;72.38
84316;BME280;74496;52.236;5.164;2024-02-26T03:46:11;100104.03;;;7.09;72.97
84316;BME280;74496;52.236;5.164;2024-02-26T03:48:40;100097.28;;;7.16;72.81
84316;BME280;74496;52.236;5.164;2024-02-26T03:51:08;100103.88;;;7.11;73.31
84316;BME280;74496;52.236;5.164;2024-02-26T03:53:35;100108.28;;;7.10;73.50
84316;BME280;74496;52.236;5.164;2024-02-26T03:56:03;100108.44;;;7.09;74.33
84316;BME280;74496;52.236;5.164;2024-02-26T03:58:30;100114.66;;;7.08;73.98
84316;BME280;74496;52.236;5.164;2024-02-26T04:00:57;100121.41;;;7.10;73.66
84316;BME280;74496;52.236;5.164;2024-02-26T04:03:23;100111.75;;;7.11;73.42
84316;BME280;74496;52.236;5.164;2024-02-26T04:05:52;100116.09;;;7.21;72.74
84316;BME280;74496;52.236;5.164;2024-02-26T04:08:18;100124.22;;;7.18;73.29
84316;BME280;74496;52.236;5.164;2024-02-26T04:10:45;100122.94;;;7.13;73.48
84316;BME280;74496;52.236;5.164;2024-02-26T04:13:12;100127.81;;;7.17;73.95
84316;BME280;74496;52.236;5.164;2024-02-26T04:15:38;100135.28;;;7.22;72.99
84316;BME280;74496;52.236;5.164;2024-02-26T04:18:05;100131.94;;;7.20;73.20
84316;BME280;74496;52.236;5.164;2024-02-26T04:20:32;100142.16;;;7.23;73.02
84316;BME280;74496;52.236;5.164;2024-02-26T04:23:00;100142.31;;;7.21;72.64
84316;BME280;74496;52.236;5.164;2024-02-26T04:25:27;100149.91;;;7.24;73.37
84316;BME280;74496;52.236;5.164;2024-02-26T04:27:54;100148.38;;;7.22;73.46
84316;BME280;74496;52.236;5.164;2024-02-26T04:30:20;100151.00;;;7.22;73.40
84316;BME280;74496;52.236;5.164;2024-02-26T04:32:47;100153.75;;;7.20;72.47
84316;BME280;74496;52.236;5.164;2024-02-26T04:35:14;100163.28;;;7.21;73.33
84316;BME280;74496;52.236;5.164;2024-02-26T04:37:40;100159.84;;;7.21;73.75
84316;BME280;74496;52.236;5.164;2024-02-26T04:40:09;100154.41;;;7.13;73.56
84316;BME280;74496;52.236;5.164;2024-02-26T04:42:36;100166.56;;;7.14;73.45
84316;BME280;74496;52.236;5.164;2024-02-26T04:45:03;100171.69;;;7.15;73.06
84316;BME280;74496;52.236;5.164;2024-02-26T04:47:30;100173.59;;;7.13;73.60
84316;BME280;74496;52.236;5.164;2024-02-26T04:49:56;100169.44;;;7.11;73.63
84316;BME280;74496;52.236;5.164;2024-02-26T04:52:23;100175.97;;;7.16;72.82
84316;BME280;74496;52.236;5.164;2024-02-26T04:54:50;100167.78;;;7.10;73.17
84316;BME280;74496;52.236;5.164;2024-02-26T04:57:18;100166.56;;;7.14;72.69
84316;BME280;74496;52.236;5.164;2024-02-26T04:59:44;100166.25;;;7.07;73.97
84316;BME280;74496;52.236;5.164;2024-02-26T05:02:11;100169.19;;;7.14;73.73
84316;BME280;74496;52.236;5.164;2024-02-26T05:04:38;100166.81;;;7.11;73.38
84316;BME280;74496;52.236;5.164;2024-02-26T05:07:05;100164.50;;;7.08;73.69
84316;BME280;74496;52.236;5.164;2024-02-26T05:09:31;100178.84;;;7.13;73.46
84316;BME280;74496;52.236;5.164;2024-02-26T05:11:58;100164.59;;;7.06;73.69
84316;BME280;74496;52.236;5.164;2024-02-26T05:14:26;100170.56;;;7.08;73.65
84316;BME280;74496;52.236;5.164;2024-02-26T05:16:53;100177.59;;;7.08;74.22
84316;BME280;74496;52.236;5.164;2024-02-26T05:19:19;100176.47;;;7.10;73.48
84316;BME280;74496;52.236;5.164;2024-02-26T05:21:46;100177.41;;;6.99;73.69
84316;BME280;74496;52.236;5.164;2024-02-26T05:24:14;100177.81;;;6.95;73.85
84316;BME280;74496;52.236;5.164;2024-02-26T05:26:42;100185.84;;;7.03;74.44
84316;BME280;74496;52.236;5.164;2024-02-26T05:29:09;100187.50;;;7.04;74.22
84316;BME280;74496;52.236;5.164;2024-02-26T05:31:37;100194.16;;;7.08;74.32
84316;BME280;74496;52.236;5.164;2024-02-26T05:34:04;100195.25;;;7.05;74.34
84316;BME280;74496;52.236;5.164;2024-02-26T05:36:30;100195.66;;;7.01;74.60
84316;BME280;74496;52.236;5.164;2024-02-26T05:38:58;100196.72;;;6.98;74.10
84316;BME280;74496;52.236;5.164;2024-02-26T05:41:25;100198.38;;;6.99;74.36
84316;BME280;74496;52.236;5.164;2024-02-26T05:43:52;100194.22;;;6.97;74.25
84316;BME280;74496;52.236;5.164;2024-02-26T05:46:19;100200.88;;;7.01;74.35
84316;BME280;74496;52.236;5.164;2024-02-26T05:48:51;100199.72;;;6.94;74.66
84316;BME280;74496;52.236;5.164;2024-02-26T05:51:19;100210.28;;;7.03;74.52
84316;BME280;74496;52.236;5.164;2024-02-26T05:53:45;100204.34;;;7.01;74.97
84316;BME280;74496;52.236;5.164;2024-02-26T05:56:19;100218.34;;;6.91;75.10
84316;BME280;74496;52.236;5.164;2024-02-26T05:58:46;100215.72;;;6.91;75.54
84316;BME280;74496;52.236;5.164;2024-02-26T06:01:12;100220.44;;;6.97;74.93
84316;BME280;74496;52.236;5.164;2024-02-26T06:03:39;100226.97;;;7.02;74.20
84316;BME280;74496;52.236;5.164;2024-02-26T06:06:07;100216.63;;;7.01;74.54
84316;BME280;74496;52.236;5.164;2024-02-26T06:08:34;100217.13;;;6.95;75.10
84316;BME280;74496;52.236;5.164;2024-02-26T06:11:05;100226.91;;;6.93;74.63
84316;BME280;74496;52.236;5.164;2024-02-26T06:13:31;100226.81;;;6.94;75.04
84316;BME280;74496;52.236;5.164;2024-02-26T06:15:58;100231.91;;;6.96;74.78
84316;BME280;74496;52.236;5.164;2024-02-26T06:18:25;100242.00;;;7.00;74.64
84316;BME280;74496;52.236;5.164;2024-02-26T06:20:51;100256.47;;;6.95;74.66
84316;BME280;74496;52.236;5.164;2024-02-26T06:23:19;100253.44;;;6.99;75.41
84316;BME280;74496;52.236;5.164;2024-02-26T06:25:46;100253.59;;;6.98;74.99
84316;BME280;74496;52.236;5.164;2024-02-26T06:28:13;100261.19;;;7.01;75.25
84316;BME280;74496;52.236;5.164;2024-02-26T06:30:40;100256.06;;;6.99;75.13
84316;BME280;74496;52.236;5.164;2024-02-26T06:33:06;100260.59;;;6.97;75.59
84316;BME280;74496;52.236;5.164;2024-02-26T06:35:33;100267.63;;;6.97;75.65
84316;BME280;74496;52.236;5.164;2024-02-26T06:38:00;100272.47;;;6.92;75.25
84316;BME280;74496;52.236;5.164;2024-02-26T06:40:28;100278.28;;;6.95;75.24
84316;BME280;74496;52.236;5.164;2024-02-26T06:42:54;100274.25;;;6.91;75.21
84316;BME280;74496;52.236;5.164;2024-02-26T06:45:22;100267.28;;;7.01;75.03
84316;BME280;74496;52.236;5.164;2024-02-26T06:47:48;100287.69;;;6.98;74.69
84316;BME280;74496;52.236;5.164;2024-02-26T06:50:15;100284.19;;;6.97;76.07
84316;BME280;74496;52.236;5.164;2024-02-26T06:52:44;100281.47;;;6.99;75.67
84316;BME280;74496;52.236;5.164;2024-02-26T06:55:11;100293.09;;;7.06;75.43
84316;BME280;74496;52.236;5.164;2024-02-26T06:57:40;100296.94;;;7.02;75.82
84316;BME280;74496;52.236;5.164;2024-02-26T07:00:07;100294.13;;;6.94;75.86
84316;BME280;74496;52.236;5.164;2024-02-26T07:02:37;100296.88;;;6.92;75.38
84316;BME280;74496;52.236;5.164;2024-02-26T07:05:05;100308.19;;;6.93;75.44
84316;BME280;74496;52.236;5.164;2024-02-26T07:07:31;100323.22;;;6.91;75.59
84316;BME280;74496;52.236;5.164;2024-02-26T07:09:58;100310.50;;;6.86;76.77
84316;BME280;74496;52.236;5.164;2024-02-26T07:12:25;100317.63;;;6.84;76.77
84316;BME280;74496;52.236;5.164;2024-02-26T07:14:53;100320.59;;;6.91;76.37
84316;BME280;74496;52.236;5.164;2024-02-26T07:17:20;100328.13;;;6.84;76.71
84316;BME280;74496;52.236;5.164;2024-02-26T07:19:46;100327.63;;;6.90;76.11
84316;BME280;74496;52.236;5.164;2024-02-26T07:22:13;100333.44;;;6.94;76.01
84316;BME280;74496;52.236;5.164;2024-02-26T07:24:40;100340.22;;;6.96;76.31
84316;BME280;74496;52.236;5.164;2024-02-26T07:27:07;100341.19;;;6.95;75.99
84316;BME280;74496;52.236;5.164;2024-02-26T07:29:34;100341.31;;;6.94;76.07
84316;BME280;74496;52.236;5.164;2024-02-26T07:32:02;100343.00;;;6.95;75.53
84316;BME280;74496;52.236;5.164;2024-02-26T07:34:29;100345.63;;;6.95;76.50
84316;BME280;74496;52.236;5.164;2024-02-26T07:36:55;100350.72;;;6.96;76.21
84316;BME280;74496;52.236;5.164;2024-02-26T07:39:22;100351.13;;;6.92;76.58
84316;BME280;74496;52.236;5.164;2024-02-26T07:41:49;100361.72;;;6.90;76.50
84316;BME280;74496;52.236;5.164;2024-02-26T07:44:18;100365.06;;;6.92;76.18
84316;BME280;74496;52.236;5.164;2024-02-26T07:46:44;100367.66;;;6.92;75.61
84316;BME280;74496;52.236;5.164;2024-02-26T07:49:12;100364.81;;;6.95;75.92
84316;BME280;74496;52.236;5.164;2024-02-26T07:51:39;100364.09;;;6.93;75.67
84316;BME280;74496;52.236;5.164;2024-02-26T07:54:06;100368.03;;;6.88;75.82
84316;BME280;74496;52.236;5.164;2024-02-26T07:56:32;100376.50;;;6.91;76.15
84316;BME280;74496;52.236;5.164;2024-02-26T07:58:59;100374.81;;;6.90;76.15
84316;BME280;74496;52.236;5.164;2024-02-26T08:01:26;100384.16;;;6.83;75.78
84316;BME280;74496;52.236;5.164;2024-02-26T08:03:53;100383.72;;;6.99;74.84
84316;BME280;74496;52.236;5.164;2024-02-26T08:06:21;100391.72;;;6.97;75.32
84316;BME280;74496;52.236;5.164;2024-02-26T08:08:47;100393.50;;;6.97;75.16
84316;BME280;74496;52.236;5.164;2024-02-26T08:11:15;100407.84;;;6.93;75.57
84316;BME280;74496;52.236;5.164;2024-02-26T08:13:42;100396.63;;;6.91;75.88
84316;BME280;74496;52.236;5.164;2024-02-26T08:16:09;100392.94;;;6.93;76.02
84316;BME280;74496;52.236;5.164;2024-02-26T08:18:36;100394.34;;;6.97;75.25
84316;BME280;74496;52.236;5.164;2024-02-26T08:21:03;100407.44;;;6.97;75.62
84316;BME280;74496;52.236;5.164;2024-02-26T08:23:31;100394.56;;;7.05;75.14
84316;BME280;74496;52.236;5.164;2024-02-26T08:25:58;100403.00;;;7.09;75.22
84316;BME280;74496;52.236;5.164;2024-02-26T08:28:24;100409.97;;;6.99;75.38
84316;BME280;74496;52.236;5.164;2024-02-26T08:30:51;100411.63;;;7.00;75.50
84316;BME280;74496;52.236;5.164;2024-02-26T08:33:18;100420.31;;;7.00;74.83
84316;BME280;74496;52.236;5.164;2024-02-26T08:35:44;100411.03;;;6.96;75.04
84316;BME280;74496;52.236;5.164;2024-02-26T08:38:11;100406.75;;;6.95;75.31
84316;BME280;74496;52.236;5.164;2024-02-26T08:40:39;100422.94;;;7.00;74.79
84316;BME280;74496;52.236;5.164;2024-02-26T08:43:06;100420.19;;;7.02;75.39
84316;BME280;74496;52.236;5.164;2024-02-26T08:45:33;100423.41;;;7.05;74.81
84316;BME280;74496;52.236;5.164;2024-02-26T08:48:00;100424.13;;;7.08;74.54
84316;BME280;74496;52.236;5.164;2024-02-26T08:50:28;100437.34;;;7.06;74.11
84316;BME280;74496;52.236;5.164;2024-02-26T08:52:54;100440.31;;;7.13;74.94
84316;BME280;74496;52.236;5.164;2024-02-26T08:55:21;100433.97;;;7.15;74.80
84316;BME280;74496;52.236;5.164;2024-02-26T08:57:49;100453.16;;;7.16;74.35
84316;BME280;74496;52.236;5.164;2024-02-26T09:00:17;100452.59;;;7.12;74.73
84316;BME280;74496;52.236;5.164;2024-02-26T09:02:45;100449.81;;;7.14;74.03
84316;BME280;74496;52.236;5.164;2024-02-26T09:05:12;100451.38;;;7.16;75.09
84316;BME280;74496;52.236;5.164;2024-02-26T09:07:39;100460.66;;;7.20;74.71
84316;BME280;74496;52.236;5.164;2024-02-26T09:10:06;100458.63;;;7.24;74.57
84316;BME280;74496;52.236;5.164;2024-02-26T09:12:34;100461.38;;;7.22;75.05
84316;BME280;74496;52.236;5.164;2024-02-26T09:15:02;100465.53;;;7.25;74.63
84316;BME280;74496;52.236;5.164;2024-02-26T09:17:29;100478.28;;;7.29;74.96
84316;BME280;74496;52.236;5.164;2024-02-26T09:19:56;100471.22;;;7.30;74.22
84316;BME280;74496;52.236;5.164;2024-02-26T09:22:23;100484.34;;;7.30;74.10
84316;BME280;74496;52.236;5.164;2024-02-26T09:24:49;100472.91;;;7.31;72.96
84316;BME280;74496;52.236;5.164;2024-02-26T09:27:17;100488.66;;;7.31;74.07
84316;BME280;74496;52.236;5.164;2024-02-26T09:29:44;100494.59;;;7.33;72.94
84316;BME280;74496;52.236;5.164;2024-02-26T09:32:13;100488.53;;;7.33;73.08
84316;BME280;74496;52.236;5.164;2024-02-26T09:34:40;100494.84;;;7.30;73.77
84316;BME280;74496;52.236;5.164;2024-02-26T09:37:07;100487.44;;;7.35;72.81
84316;BME280;74496;52.236;5.164;2024-02-26T09:39:34;100495.25;;;7.46;72.62
84316;BME280;74496;52.236;5.164;2024-02-26T09:42:04;100501.00;;;7.40;73.34
84316;BME280;74496;52.236;5.164;2024-02-26T09:44:34;100510.09;;;7.36;74.04
84316;BME280;74496;52.236;5.164;2024-02-26T09:47:05;100515.66;;;7.43;72.94
84316;BME280;74496;52.236;5.164;2024-02-26T09:49:36;100513.75;;;7.45;72.99
84316;BME280;74496;52.236;5.164;2024-02-26T09:52:04;100522.00;;;7.40;74.10
84316;BME280;74496;52.236;5.164;2024-02-26T09:54:32;100515.19;;;7.49;73.04
84316;BME280;74496;52.236;5.164;2024-02-26T09:57:00;100520.56;;;7.47;74.41
84316;BME280;74496;52.236;5.164;2024-02-26T09:59:29;100530.09;;;7.48;74.68
84316;BME280;74496;52.236;5.164;2024-02-26T10:01:57;100538.44;;;7.54;73.62
84316;BME280;74496;52.236;5.164;2024-02-26T10:04:25;100544.75;;;7.51;73.70
84316;BME280;74496;52.236;5.164;2024-02-26T10:06:54;100543.78;;;7.52;72.85
84316;BME280;74496;52.236;5.164;2024-02-26T10:09:21;100544.44;;;7.33;74.47
84316;BME280;74496;52.236;5.164;2024-02-26T10:11:48;100544.88;;;7.49;73.48
84316;BME280;74496;52.236;5.164;2024-02-26T10:14:16;100550.00;;;7.51;73.54
84316;BME280;74496;52.236;5.164;2024-02-26T10:16:43;100555.69;;;7.56;73.50
84316;BME280;74496;52.236;5.164;2024-02-26T10:19:25;100559.16;;;7.57;74.38
84316;BME280;74496;52.236;5.164;2024-02-26T10:21:56;100559.28;;;7.55;74.11
84316;BME280;74496;52.236;5.164;2024-02-26T10:24:22;100556.53;;;7.57;74.51
84316;BME280;74496;52.236;5.164;2024-02-26T10:26:49;100562.13;;;7.63;73.82
84316;BME280;74496;52.236;5.164;2024-02-26T10:29:16;100568.41;;;7.72;73.61
84316;BME280;74496;52.236;5.164;2024-02-26T10:31:42;100582.19;;;7.64;73.70
84316;BME280;74496;52.236;5.164;2024-02-26T10:34:09;100577.88;;;7.63;74.62
84316;BME280;74496;52.236;5.164;2024-02-26T10:36:36;100584.22;;;7.61;74.45
84316;BME280;74496;52.236;5.164;2024-02-26T10:39:07;100575.38;;;7.62;74.35
84316;BME280;74496;52.236;5.164;2024-02-26T10:41:34;100592.34;;;7.58;74.14
84316;BME280;74496;52.236;5.164;2024-02-26T10:44:01;100590.53;;;7.58;74.55
84316;BME280;74496;52.236;5.164;2024-02-26T10:46:28;100592.69;;;7.64;74.42
84316;BME280;74496;52.236;5.164;2024-02-26T10:48:55;100602.22;;;7.65;73.41
84316;BME280;74496;52.236;5.164;2024-02-26T10:51:27;100592.28;;;7.69;74.26
84316;BME280;74496;52.236;5.164;2024-02-26T10:53:55;100601.50;;;7.63;73.37
84316;BME280;74496;52.236;5.164;2024-02-26T10:56:26;100606.84;;;7.73;73.48
84316;BME280;74496;52.236;5.164;2024-02-26T10:58:55;100615.47;;;7.64;74.71
84316;BME280;74496;52.236;5.164;2024-02-26T11:01:22;100621.06;;;7.70;74.54
84316;BME280;74496;52.236;5.164;2024-02-26T11:03:51;100618.78;;;7.66;75.16
84316;BME280;74496;52.236;5.164;2024-02-26T11:06:18;100621.66;;;7.74;74.77
84316;BME280;74496;52.236;5.164;2024-02-26T11:08:47;100627.00;;;7.72;75.21
84316;BME280;74496;52.236;5.164;2024-02-26T11:11:15;100645.38;;;7.72;75.09
84316;BME280;74496;52.236;5.164;2024-02-26T11:13:46;100638.22;;;7.74;74.49
84316;BME280;74496;52.236;5.164;2024-02-26T11:16:16;100650.63;;;7.72;74.25
84316;BME280;74496;52.236;5.164;2024-02-26T11:18:46;100649.56;;;7.75;74.47
84316;BME280;74496;52.236;5.164;2024-02-26T11:21:15;100649.69;;;7.73;74.93
84316;BME280;74496;52.236;5.164;2024-02-26T11:23:42;100647.28;;;7.82;74.36
84316;BME280;74496;52.236;5.164;2024-02-26T11:26:10;100650.38;;;7.87;75.04
84316;BME280;74496;52.236;5.164;2024-02-26T11:28:38;100653.00;;;7.87;73.99
84316;BME280;74496;52.236;5.164;2024-02-26T11:31:07;100651.66;;;7.92;73.62
84316;BME280;74496;52.236;5.164;2024-02-26T11:33:35;100661.78;;;7.97;74.22
84316;BME280;74496;52.236;5.164;2024-02-26T11:36:02;100656.53;;;7.97;73.04
84316;BME280;74496;52.236;5.164;2024-02-26T11:38:34;100663.69;;;8.06;74.11
84316;BME280;74496;52.236;5.164;2024-02-26T11:41:01;100664.19;;;8.00;73.41
84316;BME280;74496;52.236;5.164;2024-02-26T11:43:51;100664.38;;;8.08;72.44
84316;BME280;74496;52.236;5.164;2024-02-26T11:46:27;100665.66;;;8.14;73.01
84316;BME280;74496;52.236;5.164;2024-02-26T11:48:55;100665.16;;;8.20;72.94
84316;BME280;74496;52.236;5.164;2024-02-26T11:51:25;100669.94;;;8.15;71.99
84316;BME280;74496;52.236;5.164;2024-02-26T11:53:52;100669.84;;;8.16;72.86
84316;BME280;74496;52.236;5.164;2024-02-26T11:56:23;100673.31;;;8.17;72.71
84316;BME280;74496;52.236;5.164;2024-02-26T11:58:53;100667.22;;;8.16;72.76
84316;BME280;74496;52.236;5.164;2024-02-26T12:01:37;100673.31;;;8.17;73.70
84316;BME280;74496;52.236;5.164;2024-02-26T12:04:05;100671.06;;;8.33;70.33
84316;BME280;74496;52.236;5.164;2024-02-26T12:06:40;100680.44;;;8.26;72.13
84316;BME280;74496;52.236;5.164;2024-02-26T12:09:07;100683.75;;;8.28;72.25
84316;BME280;74496;52.236;5.164;2024-02-26T12:11:37;100680.88;;;8.31;72.38
84316;BME280;74496;52.236;5.164;2024-02-26T12:14:06;100689.69;;;8.41;71.61
84316;BME280;74496;52.236;5.164;2024-02-26T12:16:38;100692.78;;;8.47;72.43
84316;BME280;74496;52.236;5.164;2024-02-26T12:19:05;100695.41;;;8.47;71.76
84316;BME280;74496;52.236;5.164;2024-02-26T12:21:34;100691.56;;;8.51;71.90
84316;BME280;74496;52.236;5.164;2024-02-26T12:24:12;100701.34;;;8.49;71.35
84316;BME280;74496;52.236;5.164;2024-02-26T12:26:39;100695.56;;;8.66;72.27
84316;BME280;74496;52.236;5.164;2024-02-26T12:29:06;100703.88;;;8.50;71.49
84316;BME280;74496;52.236;5.164;2024-02-26T12:31:33;100714.00;;;8.55;72.53
84316;BME280;74496;52.236;5.164;2024-02-26T12:34:04;100700.56;;;8.69;70.99
84316;BME280;74496;52.236;5.164;2024-02-26T12:36:31;100705.81;;;8.69;71.56
84316;BME280;74496;52.236;5.164;2024-02-26T12:38:59;100712.34;;;8.75;70.83
84316;BME280;74496;52.236;5.164;2024-02-26T12:41:27;100712.06;;;8.78;70.48
84316;BME280;74496;52.236;5.164;2024-02-26T12:43:55;100717.66;;;8.84;70.36
84316;BME280;74496;52.236;5.164;2024-02-26T12:46:22;100711.72;;;8.82;69.99
84316;BME280;74496;52.236;5.164;2024-02-26T12:48:49;100723.13;;;8.92;70.79
84316;BME280;74496;52.236;5.164;2024-02-26T12:51:18;100736.03;;;8.96;70.38
84316;BME280;74496;52.236;5.164;2024-02-26T12:53:47;100734.88;;;8.88;69.95
84316;BME280;74496;52.236;5.164;2024-02-26T12:56:16;100748.47;;;8.93;69.50
84316;BME280;74496;52.236;5.164;2024-02-26T12:58:43;100738.25;;;9.00;70.01
84316;BME280;74496;52.236;5.164;2024-02-26T13:01:14;100744.16;;;8.92;69.46